D/T METAR WX W/DIR W/SPE G/SPE TEMP DEWP
19/03/19 02:50 EGOS 190250Z AUTO 13002KT 9999 BKN019/// SCT070/// 06/06 Q1023 SE (130°) 2.3mph 6°C 6°C
19/03/19 01:50 EGOS 190150Z AUTO 22004KT 3800 BR SCT019/// SCT070/// 05/05 Q1023 BR SW (220°) 4.6mph 5°C 5°C
19/03/19 00:50 EGOS 190050Z AUTO 22005KT 9999 FEW020/// BKN070/// 07/06 Q1023 SW (220°) 5.8mph 7°C 6°C
18/03/19 23:50 EGOS 182350Z 24005KT 9999 FEW022 SCT036 BKN080 07/06 Q1023 BLU NOSIG WSW (240°) 5.8mph 7°C 6°C
18/03/19 22:50 EGOS 182250Z 23005KT 9999 FEW020 SCT029 BKN080 08/07 Q1023 BLU NOSIG SW (230°) 5.8mph 8°C 7°C
18/03/19 21:50 EGOS 182150Z 26007KT 8000 -RADZ FEW020 BKN032 08/07 Q1022 BLU TEMPO SCT020 WHT -RA -DZ W (260°) 8.1mph 8°C 7°C
18/03/19 20:50 EGOS 182050Z 24007KT 9999 BKN030 08/07 Q1022 BLU TEMPO -RA SCT020 WHT WSW (240°) 8.1mph 8°C 7°C
18/03/19 19:50 EGOS 181950Z 24006KT 9999 FEW021 BKN033 BKN050 08/06 Q1022 BLU TEMPO SCT020 WHT WSW (240°) 6.9mph 8°C 6°C
18/03/19 18:50 EGOS 181850Z 25007KT 9999 -RA FEW022 BKN026 08/06 Q1021 BLU TEMPO SCT020 WHT -RA WSW (250°) 8.1mph 8°C 6°C
18/03/19 17:50 EGOS 181750Z 22006KT 9999 FEW020 BKN028 08/06 Q1021 BLU TEMPO SCT020 WHT SW (220°) 6.9mph 8°C 6°C
18/03/19 16:50 EGOS 181650Z 25008KT 9999 OVC040 09/06 Q1020 BLU NOSIG WSW (250°) 9.2mph 9°C 6°C
18/03/19 15:50 EGOS 181550Z 25008KT 9999 -RA BKN028 OVC050 09/06 Q1020 BLU NOSIG -RA WSW (250°) 9.2mph 9°C 6°C
18/03/19 14:50 EGOS 181450Z 25010KT 9999 -RA BKN028 BKN040 09/05 Q1020 BLU NOSIG -RA WSW (250°) 11.5mph 9°C 5°C
18/03/19 13:50 EGOS 181350Z 25011KT 9999 -RA SCT028 BKN040 09/05 Q1019 BLU NOSIG -RA WSW (250°) 12.7mph 9°C 5°C
18/03/19 12:50 EGOS 181250Z AUTO 25008KT 9999 -RADZ BKN028/// 09/05 Q1020 -RA -DZ WSW (250°) 9.2mph 9°C 5°C
18/03/19 11:50 EGOS 181150Z 24010KT 9999 FEW023 SCT040 09/05 Q1020 BLU NOSIG WSW (240°) 11.5mph 9°C 5°C
18/03/19 10:50 EGOS 181050Z 23011KT 9999 FEW018 BKN045 BKN100 08/03 Q1020 BLU NOSIG SW (230°) 12.7mph 8°C 3°C
18/03/19 09:50 EGOS 180950Z 25009KT 9999 FEW014 OVC050 07/04 Q1019 BLU NOSIG WSW (250°) 10.4mph 7°C 4°C
18/03/19 08:50 EGOS 180850Z 24010KT 9999 FEW014 BKN080 07/04 Q1019 BLU NOSIG WSW (240°) 11.5mph 7°C 4°C
18/03/19 07:50 EGOS 180750Z 26005KT 9999 FEW040 BKN100 06/04 Q1018 BLU NOSIG W (260°) 5.8mph 6°C 4°C
18/03/19 06:50 EGOS 180650Z 26007KT 9999 FEW025 SCT050 BKN200 04/03 Q1018 BLU W (260°) 8.1mph 4°C 3°C
18/03/19 05:50 EGOS 180550Z AUTO 26008KT 9999 BKN060/// SCT130/// 04/03 Q1018 W (260°) 9.2mph 4°C 3°C
18/03/19 04:50 EGOS 180450Z AUTO 27008KT 9999 BKN130/// 03/01 Q1017 W (270°) 9.2mph 3°C 1°C
18/03/19 03:50 EGOS 180350Z AUTO 27007KT 9999 FEW060/// BKN140/// 04/02 Q1017 RERA W (270°) 8.1mph 4°C 2°C
18/03/19 02:50 EGOS 180250Z AUTO 27010KT 9999 FEW050/// BKN140/// 05/02 Q1016 W (270°) 11.5mph 5°C 2°C
18/03/19 01:50 EGOS 180150Z AUTO 27011KT 9999 SCT180/// 05/02 Q1016 W (270°) 12.7mph 5°C 2°C
18/03/19 00:50 EGOS 180050Z AUTO 29008KT 9999 NCD 05/02 Q1016 WNW (290°) 9.2mph 5°C 2°C
17/03/19 23:50 EGOS 172350Z AUTO 27008KT 9999 NCD 05/02 Q1015 W (270°) 9.2mph 5°C 2°C
17/03/19 22:50 EGOS 172250Z AUTO 30011KT 9999 NCD 06/03 Q1014 WNW (300°) 12.7mph 6°C 3°C
17/03/19 21:50 EGOS 172150Z AUTO 30010KT 9999 FEW230/// 06/02 Q1013 WNW (300°) 11.5mph 6°C 2°C
17/03/19 20:50 EGOS 172050Z AUTO 30011KT 9999 SCT027/// 07/03 Q1012 WNW (300°) 12.7mph 7°C 3°C
17/03/19 19:50 EGOS 171950Z AUTO 29011KT 9999 FEW025/// 07/03 Q1011 RERA WNW (290°) 12.7mph 7°C 3°C
17/03/19 18:50 EGOS 171850Z AUTO 29012KT 9999 FEW033/// BKN038/// BKN046/// 07/04 Q1010 RERA WNW (290°) 13.8mph 7°C 4°C
17/03/19 17:50 EGOS 171750Z AUTO 30010KT 9999 BKN035/// BKN050/// 07/03 Q1008 WNW (300°) 11.5mph 7°C 3°C
17/03/19 16:50 EGOS 171650Z AUTO 28010KT 9999 FEW026/// BKN044/// 07/03 Q1007 RERA W (280°) 11.5mph 7°C 3°C
17/03/19 15:50 EGOS 171550Z AUTO 27010KT 9999 SCT023/// SCT041/// 07/03 Q1006 RERA W (270°) 11.5mph 7°C 3°C
17/03/19 14:50 EGOS 171450Z AUTO 26014KT 9999 FEW020/// SCT060/// 07/04 Q1005 RERA W (260°) 16.1mph 7°C 4°C
17/03/19 13:50 EGOS 171350Z AUTO 25016KT 9999 BKN027/// 07/02 Q1005 RERA WSW (250°) 18.4mph 7°C 2°C
17/03/19 12:50 EGOS 171250Z AUTO 25014G25KT 9999 FEW034/// SCT050/// 08/03 Q1004 RERA WSW (250°) 16.1mph 28.8mph 8°C 3°C
17/03/19 11:50 EGOS 171150Z AUTO 26014KT 9999 -RA FEW022/// SCT050/// 06/02 Q1004 -RA W (260°) 16.1mph 6°C 2°C
17/03/19 10:50 EGOS 171050Z AUTO 25021KT 9999 BKN037/// 06/02 Q1003 WSW (250°) 24.2mph 6°C 2°C
17/03/19 09:50 EGOS 170950Z AUTO 26016KT 9999 FEW033/// SCT038/// 06/01 Q1003 W (260°) 18.4mph 6°C 1°C
17/03/19 08:50 EGOS 170850Z AUTO 25012KT 9999 NCD 05/01 Q1002 WSW (250°) 13.8mph 5°C 1°C
17/03/19 07:50 EGOS 170750Z AUTO 27015KT 9999 SCT060/// 04/01 Q1001 W (270°) 17.3mph 4°C 1°C
17/03/19 06:50 EGOS 170650Z AUTO 25006KT 9999 SCT050/// 02/00 Q1000 REUP WSW (250°) 6.9mph 2°C 0°C
17/03/19 05:50 EGOS 170550Z AUTO 25008KT 9999 FEW029/// 03/01 Q0999 WSW (250°) 9.2mph 3°C 1°C
17/03/19 04:50 EGOS 170450Z AUTO 25006KT 9999 FEW028/// SCT050/// 02/M00 Q0999 WSW (250°) 6.9mph 2°C 0°C
17/03/19 03:50 EGOS 170350Z AUTO 26005KT 9999 SCT025/// 02/01 Q0998 W (260°) 5.8mph 2°C 1°C
17/03/19 02:50 EGOS 170250Z AUTO 27011KT 9999 FEW035/// 04/01 Q0997 W (270°) 12.7mph 4°C 1°C
17/03/19 01:50 EGOS 170150Z AUTO 27010KT 9999 SCT140/// 04/02 Q0996 RERA W (270°) 11.5mph 4°C 2°C
17/03/19 00:50 EGOS 170050Z AUTO 26007KT 9999 SCT044/// 04/03 Q0996 W (260°) 8.1mph 4°C 3°C
16/03/19 23:50 EGOS 162350Z AUTO 28008KT 9999 FEW028/// BKN046/// 04/02 Q0995 RERA W (280°) 9.2mph 4°C 2°C
16/03/19 22:50 EGOS 162250Z AUTO 27013KT 9999 -RA FEW027/// SCT039/// BKN050/// 05/03 Q0994 -RA W (270°) 15.0mph 5°C 3°C
16/03/19 21:50 EGOS 162150Z AUTO 27004KT 9999 FEW031/// BKN041/// 05/03 Q0994 W (270°) 4.6mph 5°C 3°C
16/03/19 20:50 EGOS 162050Z AUTO 25006KT 9999 FEW060/// BKN200/// 05/03 Q0993 WSW (250°) 6.9mph 5°C 3°C
16/03/19 19:50 EGOS 161950Z AUTO 26010KT 9999 SCT050/// BKN120/// 07/04 Q0992 RERA W (260°) 11.5mph 7°C 4°C
16/03/19 18:50 EGOS 161850Z AUTO 27014KT 9999 -RA SCT035/// SCT044/// 07/04 Q0991 -RA W (270°) 16.1mph 7°C 4°C
16/03/19 17:50 EGOS 161750Z AUTO 23021KT 9999 -RA FEW030/// BKN050/// 09/07 Q0990 -RA SW (230°) 24.2mph 9°C 7°C
16/03/19 16:50 EGOS 161650Z AUTO 23020KT 9000 RA FEW017/// SCT022/// 10/08 Q0990 RA SW (230°) 23.0mph 10°C 8°C
16/03/19 15:50 EGOS 161550Z AUTO 22024G35KT 9999 RA BKN022/// SCT043/// 11/08 Q0990 RA SW (220°) 27.6mph 40.3mph 11°C 8°C
16/03/19 14:50 EGOS 161450Z AUTO 21027G39KT 9999 -RA BKN024/// BKN031/// 12/08 Q0990 -RA SSW (210°) 31.1mph 44.9mph 12°C 8°C
16/03/19 13:50 EGOS 161350Z AUTO 21029KT 9999 BKN025/// BKN032/// 12/08 Q0991 SSW (210°) 33.4mph 12°C 8°C
16/03/19 12:50 EGOS 161250Z AUTO 22026G39KT 9999 BKN024/// BKN031/// 12/08 Q0993 RERA SW (220°) 29.9mph 44.9mph 12°C 8°C
16/03/19 11:50 EGOS 161150Z AUTO 22028KT 9999 BKN023/// SCT031/// 12/08 Q0994 RERA SW (220°) 32.2mph 12°C 8°C
16/03/19 10:50 EGOS 161050Z AUTO 21022G32KT 9999 BKN019/// BKN029/// 11/08 Q0995 RERA SSW (210°) 25.3mph 36.8mph 11°C 8°C
16/03/19 09:50 EGOS 160950Z AUTO 21020KT 9999 OVC018/// 11/08 Q0996 SSW (210°) 23.0mph 11°C 8°C
16/03/19 08:50 EGOS 160850Z AUTO 22018KT 9999 OVC019/// 11/08 Q0997 SW (220°) 20.7mph 11°C 8°C
16/03/19 07:50 EGOS 160750Z AUTO 22021KT 9999 OVC018/// 11/07 Q0997 SW (220°) 24.2mph 11°C 7°C
16/03/19 06:50 EGOS 160650Z AUTO 22023G34KT 9999 OVC016/// 11/08 Q0998 SW (220°) 26.5mph 39.1mph 11°C 8°C
16/03/19 05:50 EGOS 160550Z AUTO 23023G33KT 9999 OVC018/// 11/08 Q0999 RERA SW (230°) 26.5mph 38.0mph 11°C 8°C
16/03/19 04:50 EGOS 160450Z AUTO 22019KT 9999 -RA BKN020/// 11/08 Q1000 -RA SW (220°) 21.9mph 11°C 8°C
16/03/19 03:50 EGOS 160350Z AUTO 21016KT 9999 OVC020/// 11/09 Q1000 RERA SSW (210°) 18.4mph 11°C 9°C
16/03/19 02:50 EGOS 160250Z AUTO 22012KT 9999 -RA BKN014/// BKN030/// 10/10 Q1001 -RA SW (220°) 13.8mph 10°C 10°C
16/03/19 01:50 EGOS 160150Z AUTO 16005KT 9999 RA BKN013/// 08/08 Q1002 RA SSE (160°) 5.8mph 8°C 8°C
16/03/19 00:50 EGOS 160050Z AUTO 13005KT 9000 -RA FEW011/// BKN016/// 07/07 Q1004 -RA SE (130°) 5.8mph 7°C 7°C
15/03/19 23:50 EGOS 152350Z AUTO 18005KT 9000 -RA BKN014/// 07/05 Q1006 -RA S (180°) 5.8mph 7°C 5°C
15/03/19 22:50 EGOS 152250Z AUTO 21005KT 9999 -RADZ SCT028/// BKN050/// BKN080/// 08/05 Q1007 -RA -DZ SSW (210°) 5.8mph 8°C 5°C
15/03/19 21:50 EGOS 152150Z AUTO 26007KT 9999 FEW045/// OVC090/// 07/05 Q1007 W (260°) 8.1mph 7°C 5°C
15/03/19 20:50 EGOS 152050Z AUTO 25010KT 9999 BKN090/// BKN160/// 08/05 Q1008 WSW (250°) 11.5mph 8°C 5°C
15/03/19 19:50 EGOS 151950Z AUTO 25007KT 9999 SCT100/// BKN150/// 07/05 Q1007 WSW (250°) 8.1mph 7°C 5°C
15/03/19 18:50 EGOS 151850Z AUTO 27006KT 9999 SCT040/// BKN100/// 09/04 Q1008 W (270°) 6.9mph 9°C 4°C
15/03/19 17:50 EGOS 151750Z AUTO 26007KT 9999 FEW060/// SCT120/// 09/04 Q1008 W (260°) 8.1mph 9°C 4°C
15/03/19 16:50 EGOS 151650Z 27013KT 9999 SCT040 BKN200 10/04 Q1007 BLU W (270°) 15.0mph 10°C 4°C
15/03/19 15:50 EGOS 151550Z 26017KT CAVOK 10/05 Q1006 BLU W (260°) 19.6mph 10°C 5°C
15/03/19 14:50 EGOS 151450Z 27015KT 9999 BKN040 11/04 Q1006 BLU W (270°) 17.3mph 11°C 4°C
15/03/19 13:50 EGOS 151350Z 27015KT 9999 SCT040 OVC100 11/05 Q1006 BLU W (270°) 17.3mph 11°C 5°C
15/03/19 12:50 EGOS 151250Z 26015KT 9999 FEW025 BKN040 OVC090 11/05 Q1006 BLU W (260°) 17.3mph 11°C 5°C
15/03/19 11:50 EGOS 151150Z 29015KT 9999 FEW024 BKN040 BKN090 11/05 Q1005 BLU WNW (290°) 17.3mph 11°C 5°C
15/03/19 10:50 EGOS 151050Z 27015KT 9999 FEW020 BKN040 BKN090 11/06 Q1005 BLU W (270°) 17.3mph 11°C 6°C
15/03/19 09:50 EGOS 150950Z 27014KT 9999 FEW020 BKN040 BKN080 11/06 Q1004 BLU W (270°) 16.1mph 11°C 6°C
15/03/19 08:50 EGOS 150850Z 28012KT 9999 FEW012 SCT030 BKN080 11/08 Q1003 BLU W (280°) 13.8mph 11°C 8°C
15/03/19 08:13 EGOS 150813Z 26015KT 9999 4000NW -RADZ FEW012 BKN016 11/09 Q1003 GRN -RA DZ W (260°) 17.3mph 11°C 9°C
15/03/19 06:50 EGOS 150650Z 26021KT 9999 SCT016 BKN035 OVC160 11/09 Q1001 WHT W (260°) 24.2mph 11°C 9°C
15/03/19 05:50 EGOS 150550Z AUTO 25025KT 9999 BKN160/// 11/09 Q1001 WSW (250°) 28.8mph 11°C 9°C
15/03/19 04:50 EGOS 150450Z AUTO 26022G37KT 9999 FEW015/// BKN150/// 11/09 Q1001 W (260°) 25.3mph 42.6mph 11°C 9°C
15/03/19 03:50 EGOS 150350Z AUTO 26020KT 9999 FEW015/// BKN170/// 11/09 Q1001 W (260°) 23.0mph 11°C 9°C
15/03/19 02:50 EGOS 150250Z AUTO 25025KT 9999 FEW110/// BKN140/// 12/09 Q1000 RERA WSW (250°) 28.8mph 12°C 9°C
15/03/19 01:50 EGOS 150150Z AUTO 25024G35KT 9999 -RADZ BKN090/// BKN140/// 11/09 Q1001 -RA -DZ WSW (250°) 27.6mph 40.3mph 11°C 9°C
15/03/19 00:50 EGOS 150050Z AUTO 21007KT 9999 SCT014/// BKN080/// 09/08 Q1002 RERA SSW (210°) 8.1mph 9°C 8°C
14/03/19 23:50 EGOS 142350Z AUTO 16005KT 9999 -RA BKN009/// SCT060/// 08/06 Q1003 -RA SSE (160°) 5.8mph 8°C 6°C
14/03/19 22:50 EGOS 142250Z 21005KT 9999 -RA OVC060 08/06 Q1004 BLU NOSIG -RA SSW (210°) 5.8mph 8°C 6°C
14/03/19 21:50 EGOS 142150Z 25017KT 9999 -RA OVC070 08/05 Q1005 BLU NOSIG -RA WSW (250°) 19.6mph 8°C 5°C
14/03/19 20:50 EGOS 142050Z 22010KT CAVOK 09/04 Q1005 BLU NOSIG SW (220°) 11.5mph 9°C 4°C
14/03/19 19:50 EGOS 141950Z 22008KT CAVOK 08/04 Q1006 BLU NOSIG SW (220°) 9.2mph 8°C 4°C
14/03/19 18:50 EGOS 141850Z 27013KT CAVOK 09/03 Q1006 BLU NOSIG W (270°) 15.0mph 9°C 3°C
14/03/19 17:50 EGOS 141750Z 28013KT CAVOK 09/03 Q1006 BLU NOSIG W (280°) 15.0mph 9°C 3°C
14/03/19 16:50 EGOS 141650Z 27013KT 9999 FEW030 BKN060 10/04 Q1005 BLU NOSIG W (270°) 15.0mph 10°C 4°C
14/03/19 15:50 EGOS 141550Z 27011KT 9999 SCT030 SCT042 10/04 Q1005 BLU NOSIG W (270°) 12.7mph 10°C 4°C
14/03/19 14:50 EGOS 141450Z 30017KT 9999 FEW025 SCT045 10/04 Q1004 BLU NOSIG WNW (300°) 19.6mph 10°C 4°C
14/03/19 13:50 EGOS 141350Z 30018KT 9999 -SHRA FEW022 SCT038 10/06 Q1003 BLU NOSIG -SHRA WNW (300°) 20.7mph 10°C 6°C
14/03/19 12:50 EGOS 141250Z 30019KT 9999 FEW025 SCT035 11/04 Q1003 BLU NOSIG WNW (300°) 21.9mph 11°C 4°C
14/03/19 11:50 EGOS 141150Z 28021KT 9999 FEW025 SCT038 10/05 Q1002 BLU NOSIG W (280°) 24.2mph 10°C 5°C
14/03/19 11:08 EGOS 141108Z 28020KT 9999 SCT028 BKN040 10/05 Q1002 BLU TEMPO 7000 SHRA WHT W (280°) 23.0mph 10°C 5°C
14/03/19 10:50 EGOS 141050Z 29022G33KT 9999 7000SW -SHRA SCT028 BKN038 BKN050 10/05 Q1001 WHT BECMG 9999 NSW BLU -SHRA WNW (290°) 25.3mph 38.0mph 10°C 5°C
14/03/19 09:50 EGOS 140950Z 29018KT 9999 SCT025 BKN038 11/05 Q1001 BLU NOSIG WNW (290°) 20.7mph 11°C 5°C
14/03/19 08:50 EGOS 140850Z 29016KT 9999 FEW020 SCT040 BKN080 11/06 Q1000 RERA BLU TEMPO 28024G34KT SCT022 WHT WNW (290°) 18.4mph 11°C 6°C
14/03/19 08:08 EGOS 140808Z 29014KT 9999 -RA FEW010 BKN030 10/09 Q0999 RERA BLU BECMG 29020G30KT BLU -RA WNW (290°) 16.1mph 10°C 9°C
14/03/19 07:46 EGOS 140746Z 26014KT 6000 RA FEW014 BKN022 09/08 Q0998 WHT RA W (260°) 16.1mph 9°C 8°C
14/03/19 06:50 EGOS 140650Z 25021KT 9999 -RA FEW020 BKN030 09/08 Q0998 BLU -RA WSW (250°) 24.2mph 9°C 8°C
14/03/19 05:50 EGOS 140550Z AUTO 25023G33KT 9999 -RA FEW017/// BKN032/// 09/07 Q0998 -RA WSW (250°) 26.5mph 38.0mph 9°C 7°C
14/03/19 04:50 EGOS 140450Z AUTO 24021KT 9999 -RA BKN017/// SCT039/// 09/07 Q1000 -RA WSW (240°) 24.2mph 9°C 7°C
14/03/19 03:50 EGOS 140350Z AUTO 24019KT 9999 -RA BKN023/// BKN070/// 08/06 Q1001 -RA WSW (240°) 21.9mph 8°C 6°C
14/03/19 02:50 EGOS 140250Z AUTO 24021KT 9999 -RA SCT023/// BKN050/// 08/06 Q1004 -RA WSW (240°) 24.2mph 8°C 6°C
14/03/19 01:50 EGOS 140150Z AUTO 23018KT 9999 -RA FEW020/// BKN050/// 08/05 Q1005 -RA SW (230°) 20.7mph 8°C 5°C
14/03/19 00:50 EGOS 140050Z AUTO 24018KT 9999 FEW031/// BKN060/// 08/05 Q1007 WSW (240°) 20.7mph 8°C 5°C
13/03/19 23:50 EGOS 132350Z 24015KT 9999 SCT031 OVC090 07/05 Q1008 BLU NOSIG WSW (240°) 17.3mph 7°C 5°C
13/03/19 22:50 EGOS 132250Z 24016KT CAVOK 07/04 Q1009 BLU NOSIG WSW (240°) 18.4mph 7°C 4°C
13/03/19 21:50 EGOS 132150Z 25012KT 9999 FEW028 OVC080 07/04 Q1010 BLU NOSIG WSW (250°) 13.8mph 7°C 4°C
13/03/19 20:50 EGOS 132050Z 27013KT 9999 FEW028 BKN110 07/03 Q1011 BLU NOSIG W (270°) 15.0mph 7°C 3°C
13/03/19 19:50 EGOS 131950Z 26012KT 9999 SCT030 BKN120 07/03 Q1011 BLU NOSIG W (260°) 13.8mph 7°C 3°C
13/03/19 18:50 EGOS 131850Z 26012KT 9999 FEW039 BKN100 BKN220 08/03 Q1011 BLU NOSIG W (260°) 13.8mph 8°C 3°C
13/03/19 17:50 EGOS 131750Z 28015G25KT 9999 FEW045 BKN250 09/02 Q1011 BLU NOSIG W (280°) 17.3mph 28.8mph 9°C 2°C
13/03/19 16:50 EGOS 131650Z 28014KT 9999 FEW046 BKN250 09/02 Q1011 BLU NOSIG W (280°) 16.1mph 9°C 2°C
13/03/19 15:50 EGOS 131550Z 28014KT 9999 FEW042 BKN046 09/01 Q1011 BLU NOSIG W (280°) 16.1mph 9°C 1°C
13/03/19 14:50 EGOS 131450Z 28018G29KT 9999 BKN038 09/02 Q1010 BLU NOSIG W (280°) 20.7mph 33.4mph 9°C 2°C
13/03/19 13:50 EGOS 131350Z 29020G30KT 9999 FEW035 BKN038 09/02 Q1009 BLU NOSIG WNW (290°) 23.0mph 34.5mph 9°C 2°C
13/03/19 12:50 EGOS 131250Z 29023KT 9999 BKN036 09/02 Q1009 BLU NOSIG WNW (290°) 26.5mph 9°C 2°C
13/03/19 11:50 EGOS 131150Z 28021G32KT 9999 BKN036 09/03 Q1008 BLU NOSIG W (280°) 24.2mph 36.8mph 9°C 3°C
13/03/19 10:50 EGOS 131050Z 28019G30KT 9999 BKN034 BKN045 09/03 Q1007 BLU NOSIG W (280°) 21.9mph 34.5mph 9°C 3°C
13/03/19 09:50 EGOS 130950Z 29023G34KT 9999 BKN032 BKN040 08/03 Q1006 BLU NOSIG WNW (290°) 26.5mph 39.1mph 8°C 3°C
13/03/19 08:50 EGOS 130850Z 28020KT 9999 SCT032 BKN044 08/04 Q1004 BLU NOSIG W (280°) 23.0mph 8°C 4°C
13/03/19 07:50 EGOS 130750Z 28020KT 9999 SCT032 BKN042 08/03 Q1003 BLU NOSIG W (280°) 23.0mph 8°C 3°C
13/03/19 06:50 EGOS 130650Z 27018KT 9999 BKN030 BKN040 07/03 Q1002 BLU W (270°) 20.7mph 7°C 3°C
13/03/19 05:50 EGOS 130550Z 26015KT 9999 BKN035 07/04 Q1001 BLU W (260°) 17.3mph 7°C 4°C